Terminal Aerodrome Forecast
Issued by NWS

Home | Current Version | Previous Version | Text Only | Print | Product List | Glossary On
Versions: 1 2 3 4 5 6 7 8 9 10 11 12 13 14 15
000
FTUS43 KPAH 132328
TAFOWB
TAF
KOWB 132328Z 1400/1424 12004KT P6SM BKN250
     FM140300 VRB03KT P6SM -SHRA SCT060 BKN100
     FM141400 16004KT 6SM -SHRA BR BKN025
     FM141800 19004KT P6SM BKN035=

USA.gov is the U.S. government's official web portal to all federal, state and local government web resources and services.